Skip Navigation Links Skip Navigation Links

Current Weather

Santacruz Apt, Mumbai (Bombay), India

For information only: do not use for flight planning or navigation.
Latest weather
Observation time Tuesday, October 17, 2017 11:00 AM IST
Local time Tuesday, October 17, 2017 11:34 AM IST
Flight conditions Instrument Meteorological Conditions
Winds
Wind direction East (90°)
Wind speed 6 mph
Visibility 1.6 mi.
Present weather haze
Sky condition
Ceiling unlimited
Cloud layer scattered clouds 2,000 ft.
Cloud layer scattered clouds 10,000 ft.
Temperature 90°F
Dewpoint 81°F
Altimeter 29.83 in.Hg
Derived measurements
Relative humidity 75%
Heat index 108°F
Density altitude 2569 ft.
Remarks
No significant changes expected in the next two hours.
METAR VABB 170530Z 09005KT 2500 HZ SCT020 SCT100 32/27 Q1010 NOSIG

Settings

Location code

InnerDrive.Weather 4.0.6144.1 Release CLR 4.0.30319.36366
Copyright ©2015 Inner Drive Technology. All rights reserved. Portions Copyright ©1986-2015 David Braverman.

Find weather

Site navigation


Skip Navigation Links

Place info

Page info

PayPal - The safer, easier way to pay online!

Return home.

Copyright ©2017 Inner Drive Technology. Purveyors of fine, hand-crafted computer software. Page printed 2017-10-17T06:04:23 UTC.